West Hurley, New York
Current Conditions -  °F | °C
As of 11:53 PM on Wednesday 22 Oct 2014 (Local Time) from KPOU Reporting Station
Light Rain Light Rain  
Wind Chill: 10°   Ceiling: 1400
Heat Index: 10°   Visibility: 8mi
Dew Point:   Wind: 12mph
Humidity: 89%   Direction: 10°N
Pressure: 29.82"   Gusts: 24mph
Location:  42.01°N, 74.11°W
Report Text: KPOU 230353Z AUTO 01010G21KT 8SM -RA BKN014 OVC018 10/08 A2982 RMK AO2 SLP094 P0023 T01000083 TSNO
Loading
Personal Weather Stations






























Interactive Weather Map
Tropical Storm Tracking
New forecast layout! Learn more

10-Day Weather Forecast

Advertisements
Track Severe Weather on mobile